sensor_id;sensor_type;location;lat;lon;timestamp;temperature;humidity
54846;DHT22;53889;50.084;8.646;2023-08-21T00:00:07;26.30;94.60
54846;DHT22;53889;50.084;8.646;2023-08-21T00:02:37;26.30;94.80
54846;DHT22;53889;50.084;8.646;2023-08-21T00:05:04;26.40;94.50
54846;DHT22;53889;50.084;8.646;2023-08-21T00:07:31;26.30;94.50
54846;DHT22;53889;50.084;8.646;2023-08-21T00:09:58;26.40;94.40
54846;DHT22;53889;50.084;8.646;2023-08-21T00:12:25;26.40;94.40
54846;DHT22;53889;50.084;8.646;2023-08-21T00:14:53;26.70;94.60
54846;DHT22;53889;50.084;8.646;2023-08-21T00:17:20;26.20;94.70
54846;DHT22;53889;50.084;8.646;2023-08-21T00:19:46;26.10;94.80
54846;DHT22;53889;50.084;8.646;2023-08-21T00:22:13;26.10;94.90
54846;DHT22;53889;50.084;8.646;2023-08-21T00:24:40;26.20;94.80
54846;DHT22;53889;50.084;8.646;2023-08-21T00:27:06;26.20;94.80
54846;DHT22;53889;50.084;8.646;2023-08-21T00:29:33;26.20;94.70
54846;DHT22;53889;50.084;8.646;2023-08-21T00:32:01;26.20;94.70
54846;DHT22;53889;50.084;8.646;2023-08-21T00:34:28;26.10;94.90
54846;DHT22;53889;50.084;8.646;2023-08-21T00:36:55;26.10;94.90
54846;DHT22;53889;50.084;8.646;2023-08-21T00:39:21;26.10;95.00
54846;DHT22;53889;50.084;8.646;2023-08-21T00:41:48;26.00;95.00
54846;DHT22;53889;50.084;8.646;2023-08-21T00:44:15;26.00;94.90
54846;DHT22;53889;50.084;8.646;2023-08-21T00:46:42;26.00;94.90
54846;DHT22;53889;50.084;8.646;2023-08-21T00:49:11;26.00;95.00
54846;DHT22;53889;50.084;8.646;2023-08-21T00:51:39;25.80;95.10
54846;DHT22;53889;50.084;8.646;2023-08-21T00:54:06;25.60;95.30
54846;DHT22;53889;50.084;8.646;2023-08-21T00:56:33;25.60;95.50
54846;DHT22;53889;50.084;8.646;2023-08-21T00:59:00;25.60;95.50
54846;DHT22;53889;50.084;8.646;2023-08-21T01:01:28;25.60;95.50
54846;DHT22;53889;50.084;8.646;2023-08-21T01:03:55;25.60;95.50
54846;DHT22;53889;50.084;8.646;2023-08-21T01:06:24;25.50;95.60
54846;DHT22;53889;50.084;8.646;2023-08-21T01:08:56;25.50;95.70
54846;DHT22;53889;50.084;8.646;2023-08-21T01:11:30;25.60;95.60
54846;DHT22;53889;50.084;8.646;2023-08-21T01:14:03;25.60;95.60
54846;DHT22;53889;50.084;8.646;2023-08-21T01:16:33;25.70;95.50
54846;DHT22;53889;50.084;8.646;2023-08-21T01:19:01;25.60;95.60
54846;DHT22;53889;50.084;8.646;2023-08-21T01:21:31;25.60;95.60
54846;DHT22;53889;50.084;8.646;2023-08-21T01:23:59;25.70;95.60
54846;DHT22;53889;50.084;8.646;2023-08-21T01:26:26;25.60;95.50
54846;DHT22;53889;50.084;8.646;2023-08-21T01:28:53;25.60;95.50
54846;DHT22;53889;50.084;8.646;2023-08-21T01:31:23;25.60;95.60
54846;DHT22;53889;50.084;8.646;2023-08-21T01:33:54;27.10;96.00
54846;DHT22;53889;50.084;8.646;2023-08-21T01:36:23;25.50;95.60
54846;DHT22;53889;50.084;8.646;2023-08-21T01:38:50;25.50;95.70
54846;DHT22;53889;50.084;8.646;2023-08-21T01:41:19;25.50;95.80
54846;DHT22;53889;50.084;8.646;2023-08-21T01:43:45;25.30;95.90
54846;DHT22;53889;50.084;8.646;2023-08-21T01:46:12;25.30;96.10
54846;DHT22;53889;50.084;8.646;2023-08-21T01:48:39;25.30;96.10
54846;DHT22;53889;50.084;8.646;2023-08-21T01:51:05;25.40;96.00
54846;DHT22;53889;50.084;8.646;2023-08-21T01:53:32;25.50;95.90
54846;DHT22;53889;50.084;8.646;2023-08-21T01:56:00;25.50;95.90
54846;DHT22;53889;50.084;8.646;2023-08-21T01:58:28;25.50;95.80
54846;DHT22;53889;50.084;8.646;2023-08-21T02:00:55;25.50;95.80
54846;DHT22;53889;50.084;8.646;2023-08-21T02:03:25;25.50;95.80
54846;DHT22;53889;50.084;8.646;2023-08-21T02:05:55;25.40;95.70
54846;DHT22;53889;50.084;8.646;2023-08-21T02:08:30;25.40;95.80
54846;DHT22;53889;50.084;8.646;2023-08-21T02:10:57;25.40;95.80
54846;DHT22;53889;50.084;8.646;2023-08-21T02:13:23;25.30;95.90
54846;DHT22;53889;50.084;8.646;2023-08-21T02:15:51;25.30;96.00
54846;DHT22;53889;50.084;8.646;2023-08-21T02:18:18;25.30;96.00
54846;DHT22;53889;50.084;8.646;2023-08-21T02:20:47;25.30;95.90
54846;DHT22;53889;50.084;8.646;2023-08-21T02:23:13;25.40;95.90
54846;DHT22;53889;50.084;8.646;2023-08-21T02:25:41;25.40;95.80
54846;DHT22;53889;50.084;8.646;2023-08-21T02:28:08;25.40;95.80
54846;DHT22;53889;50.084;8.646;2023-08-21T02:30:34;25.20;95.90
54846;DHT22;53889;50.084;8.646;2023-08-21T02:33:03;25.10;96.10
54846;DHT22;53889;50.084;8.646;2023-08-21T02:35:29;25.20;96.10
54846;DHT22;53889;50.084;8.646;2023-08-21T02:37:56;25.10;96.10
54846;DHT22;53889;50.084;8.646;2023-08-21T02:40:23;25.20;96.20
54846;DHT22;53889;50.084;8.646;2023-08-21T02:42:50;25.20;96.00
54846;DHT22;53889;50.084;8.646;2023-08-21T02:45:16;25.20;96.10
54846;DHT22;53889;50.084;8.646;2023-08-21T02:47:45;25.10;96.20
54846;DHT22;53889;50.084;8.646;2023-08-21T02:50:13;25.10;96.30
54846;DHT22;53889;50.084;8.646;2023-08-21T02:52:39;26.60;96.80
54846;DHT22;53889;50.084;8.646;2023-08-21T02:55:07;25.10;96.40
54846;DHT22;53889;50.084;8.646;2023-08-21T02:57:34;25.00;96.30
54846;DHT22;53889;50.084;8.646;2023-08-21T03:00:01;25.10;96.30
54846;DHT22;53889;50.084;8.646;2023-08-21T03:02:28;24.90;96.30
54846;DHT22;53889;50.084;8.646;2023-08-21T03:04:55;25.00;96.40
54846;DHT22;53889;50.084;8.646;2023-08-21T03:07:23;24.80;96.50
54846;DHT22;53889;50.084;8.646;2023-08-21T03:09:50;24.90;96.60
54846;DHT22;53889;50.084;8.646;2023-08-21T03:12:17;24.90;96.60
54846;DHT22;53889;50.084;8.646;2023-08-21T03:14:43;24.90;96.50
54846;DHT22;53889;50.084;8.646;2023-08-21T03:17:10;24.80;96.50
54846;DHT22;53889;50.084;8.646;2023-08-21T03:19:37;24.80;96.70
54846;DHT22;53889;50.084;8.646;2023-08-21T03:22:04;24.80;96.80
54846;DHT22;53889;50.084;8.646;2023-08-21T03:24:33;24.70;96.70
54846;DHT22;53889;50.084;8.646;2023-08-21T03:27:01;24.70;96.80
54846;DHT22;53889;50.084;8.646;2023-08-21T03:29:28;25.40;96.90
54846;DHT22;53889;50.084;8.646;2023-08-21T03:31:55;24.80;96.60
54846;DHT22;53889;50.084;8.646;2023-08-21T03:34:22;24.70;96.60
54846;DHT22;53889;50.084;8.646;2023-08-21T03:36:52;24.70;96.70
54846;DHT22;53889;50.084;8.646;2023-08-21T03:39:19;24.60;96.80
54846;DHT22;53889;50.084;8.646;2023-08-21T03:41:48;24.60;96.90
54846;DHT22;53889;50.084;8.646;2023-08-21T03:44:15;24.60;97.00
54846;DHT22;53889;50.084;8.646;2023-08-21T03:46:42;24.70;96.80
54846;DHT22;53889;50.084;8.646;2023-08-21T03:49:09;24.70;96.80
54846;DHT22;53889;50.084;8.646;2023-08-21T03:51:36;24.70;96.80
54846;DHT22;53889;50.084;8.646;2023-08-21T03:54:03;24.70;96.90
54846;DHT22;53889;50.084;8.646;2023-08-21T03:56:30;24.70;96.90
54846;DHT22;53889;50.084;8.646;2023-08-21T03:58:58;24.70;96.90
54846;DHT22;53889;50.084;8.646;2023-08-21T04:01:24;24.70;96.90
54846;DHT22;53889;50.084;8.646;2023-08-21T04:03:51;24.70;96.90
54846;DHT22;53889;50.084;8.646;2023-08-21T04:06:18;24.60;97.00
54846;DHT22;53889;50.084;8.646;2023-08-21T04:08:45;24.70;97.00
54846;DHT22;53889;50.084;8.646;2023-08-21T04:11:11;24.60;97.10
54846;DHT22;53889;50.084;8.646;2023-08-21T04:13:38;24.60;97.10
54846;DHT22;53889;50.084;8.646;2023-08-21T04:16:06;24.60;97.10
54846;DHT22;53889;50.084;8.646;2023-08-21T04:18:33;24.50;97.10
54846;DHT22;53889;50.084;8.646;2023-08-21T04:21:02;24.50;97.10
54846;DHT22;53889;50.084;8.646;2023-08-21T04:23:29;24.50;97.20
54846;DHT22;53889;50.084;8.646;2023-08-21T04:26:00;24.50;97.20
54846;DHT22;53889;50.084;8.646;2023-08-21T04:28:26;24.40;97.40
54846;DHT22;53889;50.084;8.646;2023-08-21T04:30:53;24.70;97.30
54846;DHT22;53889;50.084;8.646;2023-08-21T04:33:22;24.60;97.20
54846;DHT22;53889;50.084;8.646;2023-08-21T04:35:48;24.40;97.20
54846;DHT22;53889;50.084;8.646;2023-08-21T04:38:15;24.40;97.30
54846;DHT22;53889;50.084;8.646;2023-08-21T04:40:42;24.30;97.40
54846;DHT22;53889;50.084;8.646;2023-08-21T04:43:08;24.30;97.40
54846;DHT22;53889;50.084;8.646;2023-08-21T04:45:35;24.20;97.50
54846;DHT22;53889;50.084;8.646;2023-08-21T04:48:03;24.00;97.70
54846;DHT22;53889;50.084;8.646;2023-08-21T04:50:32;24.10;97.80
54846;DHT22;53889;50.084;8.646;2023-08-21T04:52:58;24.10;97.80
54846;DHT22;53889;50.084;8.646;2023-08-21T04:55:25;24.20;97.70
54846;DHT22;53889;50.084;8.646;2023-08-21T04:57:52;24.30;97.70
54846;DHT22;53889;50.084;8.646;2023-08-21T05:00:19;24.30;97.60
54846;DHT22;53889;50.084;8.646;2023-08-21T05:02:46;24.40;97.70
54846;DHT22;53889;50.084;8.646;2023-08-21T05:05:12;24.40;97.70
54846;DHT22;53889;50.084;8.646;2023-08-21T05:07:40;24.40;97.60
54846;DHT22;53889;50.084;8.646;2023-08-21T05:10:08;24.60;97.60
54846;DHT22;53889;50.084;8.646;2023-08-21T05:12:36;24.70;97.40
54846;DHT22;53889;50.084;8.646;2023-08-21T05:15:04;25.10;96.90
54846;DHT22;53889;50.084;8.646;2023-08-21T05:17:30;25.70;96.00
54846;DHT22;53889;50.084;8.646;2023-08-21T05:19:57;26.20;95.00
54846;DHT22;53889;50.084;8.646;2023-08-21T05:22:24;26.40;94.50
54846;DHT22;53889;50.084;8.646;2023-08-21T05:24:53;26.60;94.00
54846;DHT22;53889;50.084;8.646;2023-08-21T05:27:20;26.90;93.50
54846;DHT22;53889;50.084;8.646;2023-08-21T05:29:47;26.80;93.50
54846;DHT22;53889;50.084;8.646;2023-08-21T05:32:14;26.50;93.70
54846;DHT22;53889;50.084;8.646;2023-08-21T05:34:41;26.10;94.20
54846;DHT22;53889;50.084;8.646;2023-08-21T05:37:08;25.90;94.50
54846;DHT22;53889;50.084;8.646;2023-08-21T05:39:36;25.70;94.80
54846;DHT22;53889;50.084;8.646;2023-08-21T05:42:05;25.70;95.20
54846;DHT22;53889;50.084;8.646;2023-08-21T05:44:32;25.60;95.30
54846;DHT22;53889;50.084;8.646;2023-08-21T05:46:59;25.60;95.30
54846;DHT22;53889;50.084;8.646;2023-08-21T05:49:26;26.10;95.40
54846;DHT22;53889;50.084;8.646;2023-08-21T05:51:52;26.00;95.30
54846;DHT22;53889;50.084;8.646;2023-08-21T05:54:19;26.40;94.90
54846;DHT22;53889;50.084;8.646;2023-08-21T05:56:47;26.90;94.10
54846;DHT22;53889;50.084;8.646;2023-08-21T05:59:26;27.30;93.50
54846;DHT22;53889;50.084;8.646;2023-08-21T06:01:53;27.80;92.70
54846;DHT22;53889;50.084;8.646;2023-08-21T06:04:20;27.80;92.30
54846;DHT22;53889;50.084;8.646;2023-08-21T06:06:54;27.60;92.50
54846;DHT22;53889;50.084;8.646;2023-08-21T06:09:21;27.40;92.70
54846;DHT22;53889;50.084;8.646;2023-08-21T06:11:47;26.90;93.20
54846;DHT22;53889;50.084;8.646;2023-08-21T06:14:15;26.70;93.40
54846;DHT22;53889;50.084;8.646;2023-08-21T06:16:42;26.70;93.60
54846;DHT22;53889;50.084;8.646;2023-08-21T06:19:10;26.50;93.60
54846;DHT22;53889;50.084;8.646;2023-08-21T06:21:37;26.50;93.80
54846;DHT22;53889;50.084;8.646;2023-08-21T06:24:04;26.70;94.10
54846;DHT22;53889;50.084;8.646;2023-08-21T06:26:31;26.60;93.90
54846;DHT22;53889;50.084;8.646;2023-08-21T06:28:57;26.40;93.80
54846;DHT22;53889;50.084;8.646;2023-08-21T06:31:25;26.40;94.10
54846;DHT22;53889;50.084;8.646;2023-08-21T06:33:54;26.60;94.10
54846;DHT22;53889;50.084;8.646;2023-08-21T06:36:21;26.60;94.20
54846;DHT22;53889;50.084;8.646;2023-08-21T06:38:47;27.00;93.50
54846;DHT22;53889;50.084;8.646;2023-08-21T06:41:14;27.50;93.30
54846;DHT22;53889;50.084;8.646;2023-08-21T06:43:42;28.30;92.40
54846;DHT22;53889;50.084;8.646;2023-08-21T06:46:09;28.90;91.70
54846;DHT22;53889;50.084;8.646;2023-08-21T06:48:38;29.60;91.10
54846;DHT22;53889;50.084;8.646;2023-08-21T06:51:05;29.80;89.90
54846;DHT22;53889;50.084;8.646;2023-08-21T06:53:32;30.40;89.00
54846;DHT22;53889;50.084;8.646;2023-08-21T06:55:59;30.80;88.10
54846;DHT22;53889;50.084;8.646;2023-08-21T06:58:25;30.90;87.30
54846;DHT22;53889;50.084;8.646;2023-08-21T07:00:53;30.70;86.60
54846;DHT22;53889;50.084;8.646;2023-08-21T07:03:21;30.90;87.50
54846;DHT22;53889;50.084;8.646;2023-08-21T07:05:54;31.50;86.10
54846;DHT22;53889;50.084;8.646;2023-08-21T07:08:21;31.60;85.30
54846;DHT22;53889;50.084;8.646;2023-08-21T07:10:49;31.50;84.70
54846;DHT22;53889;50.084;8.646;2023-08-21T07:13:15;31.30;85.00
54846;DHT22;53889;50.084;8.646;2023-08-21T07:15:42;32.00;84.60
54846;DHT22;53889;50.084;8.646;2023-08-21T07:18:09;31.90;84.90
54846;DHT22;53889;50.084;8.646;2023-08-21T07:20:35;32.20;84.50
54846;DHT22;53889;50.084;8.646;2023-08-21T07:23:04;32.40;84.00
54846;DHT22;53889;50.084;8.646;2023-08-21T07:25:31;32.80;82.70
54846;DHT22;53889;50.084;8.646;2023-08-21T07:27:58;32.70;81.70
54846;DHT22;53889;50.084;8.646;2023-08-21T07:30:25;32.80;82.90
54846;DHT22;53889;50.084;8.646;2023-08-21T07:32:53;32.90;81.50
54846;DHT22;53889;50.084;8.646;2023-08-21T07:35:20;33.00;82.30
54846;DHT22;53889;50.084;8.646;2023-08-21T07:37:47;32.60;81.00
54846;DHT22;53889;50.084;8.646;2023-08-21T07:40:15;32.70;82.20
54846;DHT22;53889;50.084;8.646;2023-08-21T07:42:42;32.60;82.00
54846;DHT22;53889;50.084;8.646;2023-08-21T07:45:09;32.70;81.70
54846;DHT22;53889;50.084;8.646;2023-08-21T07:47:36;33.00;81.90
54846;DHT22;53889;50.084;8.646;2023-08-21T07:50:04;32.60;81.50
54846;DHT22;53889;50.084;8.646;2023-08-21T07:52:30;32.30;83.10
54846;DHT22;53889;50.084;8.646;2023-08-21T07:54:57;32.20;83.20
54846;DHT22;53889;50.084;8.646;2023-08-21T07:57:27;32.40;83.20
54846;DHT22;53889;50.084;8.646;2023-08-21T07:59:54;32.60;83.10
54846;DHT22;53889;50.084;8.646;2023-08-21T08:02:21;32.60;82.20
54846;DHT22;53889;50.084;8.646;2023-08-21T08:04:48;32.50;83.20
54846;DHT22;53889;50.084;8.646;2023-08-21T08:07:15;32.80;83.40
54846;DHT22;53889;50.084;8.646;2023-08-21T08:09:41;32.70;82.50
54846;DHT22;53889;50.084;8.646;2023-08-21T08:12:08;32.80;83.30
54846;DHT22;53889;50.084;8.646;2023-08-21T08:14:38;32.80;83.20
54846;DHT22;53889;50.084;8.646;2023-08-21T08:17:05;32.80;82.80
54846;DHT22;53889;50.084;8.646;2023-08-21T08:19:31;32.50;82.90
54846;DHT22;53889;50.084;8.646;2023-08-21T08:21:58;32.20;83.50
54846;DHT22;53889;50.084;8.646;2023-08-21T08:24:25;31.60;84.90
54846;DHT22;53889;50.084;8.646;2023-08-21T08:26:53;31.70;84.80
54846;DHT22;53889;50.084;8.646;2023-08-21T08:29:19;31.90;85.00
54846;DHT22;53889;50.084;8.646;2023-08-21T08:31:47;31.60;85.50
54846;DHT22;53889;50.084;8.646;2023-08-21T08:34:14;31.30;86.50
54846;DHT22;53889;50.084;8.646;2023-08-21T08:36:43;32.00;87.30
54846;DHT22;53889;50.084;8.646;2023-08-21T08:39:10;30.90;87.30
54846;DHT22;53889;50.084;8.646;2023-08-21T08:41:41;31.50;86.20
54846;DHT22;53889;50.084;8.646;2023-08-21T08:44:10;31.80;86.70
54846;DHT22;53889;50.084;8.646;2023-08-21T08:46:39;31.50;86.20
54846;DHT22;53889;50.084;8.646;2023-08-21T08:49:07;31.70;85.70
54846;DHT22;53889;50.084;8.646;2023-08-21T08:51:35;32.00;84.40
54846;DHT22;53889;50.084;8.646;2023-08-21T08:54:04;32.60;84.40
54846;DHT22;53889;50.084;8.646;2023-08-21T08:56:31;32.80;82.80
54846;DHT22;53889;50.084;8.646;2023-08-21T08:58:58;32.90;82.70
54846;DHT22;53889;50.084;8.646;2023-08-21T09:01:24;32.80;83.20
54846;DHT22;53889;50.084;8.646;2023-08-21T09:03:51;33.00;82.00
54846;DHT22;53889;50.084;8.646;2023-08-21T09:06:19;33.60;81.50
54846;DHT22;53889;50.084;8.646;2023-08-21T09:08:53;33.70;80.70
54846;DHT22;53889;50.084;8.646;2023-08-21T09:11:20;33.50;81.00
54846;DHT22;53889;50.084;8.646;2023-08-21T09:13:49;33.30;82.20
54846;DHT22;53889;50.084;8.646;2023-08-21T09:16:17;33.30;82.50
54846;DHT22;53889;50.084;8.646;2023-08-21T09:18:47;33.80;82.50
54846;DHT22;53889;50.084;8.646;2023-08-21T09:21:16;33.60;81.50
54846;DHT22;53889;50.084;8.646;2023-08-21T09:23:44;33.80;80.90
54846;DHT22;53889;50.084;8.646;2023-08-21T09:26:11;34.10;80.20
54846;DHT22;53889;50.084;8.646;2023-08-21T09:28:38;34.40;80.20
54846;DHT22;53889;50.084;8.646;2023-08-21T09:31:05;34.20;80.40
54846;DHT22;53889;50.084;8.646;2023-08-21T09:33:31;34.10;80.00
54846;DHT22;53889;50.084;8.646;2023-08-21T09:35:59;33.90;80.60
54846;DHT22;53889;50.084;8.646;2023-08-21T09:38:26;34.00;79.70
54846;DHT22;53889;50.084;8.646;2023-08-21T09:40:55;33.80;80.60
54846;DHT22;53889;50.084;8.646;2023-08-21T09:43:22;34.50;79.40
54846;DHT22;53889;50.084;8.646;2023-08-21T09:45:51;34.70;79.10
54846;DHT22;53889;50.084;8.646;2023-08-21T09:48:21;34.90;78.80
54846;DHT22;53889;50.084;8.646;2023-08-21T09:50:50;35.30;77.70
54846;DHT22;53889;50.084;8.646;2023-08-21T09:53:17;34.70;77.70
54846;DHT22;53889;50.084;8.646;2023-08-21T09:55:44;35.30;77.40
54846;DHT22;53889;50.084;8.646;2023-08-21T09:58:13;36.10;75.60
54846;DHT22;53889;50.084;8.646;2023-08-21T10:00:40;36.10;75.40
54846;DHT22;53889;50.084;8.646;2023-08-21T10:03:08;35.90;75.60
54846;DHT22;53889;50.084;8.646;2023-08-21T10:05:38;35.90;75.20
54846;DHT22;53889;50.084;8.646;2023-08-21T10:08:05;36.60;74.50
54846;DHT22;53889;50.084;8.646;2023-08-21T10:10:33;37.00;73.80
54846;DHT22;53889;50.084;8.646;2023-08-21T10:13:00;36.80;73.60
54846;DHT22;53889;50.084;8.646;2023-08-21T10:15:29;37.00;73.10
54846;DHT22;53889;50.084;8.646;2023-08-21T10:17:57;37.20;72.00
54846;DHT22;53889;50.084;8.646;2023-08-21T10:20:25;37.30;72.10
54846;DHT22;53889;50.084;8.646;2023-08-21T10:22:53;37.20;71.60
54846;DHT22;53889;50.084;8.646;2023-08-21T10:25:21;37.80;69.70
54846;DHT22;53889;50.084;8.646;2023-08-21T10:27:53;38.00;69.00
54846;DHT22;53889;50.084;8.646;2023-08-21T10:30:21;38.00;69.00
54846;DHT22;53889;50.084;8.646;2023-08-21T10:32:51;38.10;69.50
54846;DHT22;53889;50.084;8.646;2023-08-21T10:35:20;38.00;67.80
54846;DHT22;53889;50.084;8.646;2023-08-21T10:38:09;38.10;66.40
54846;DHT22;53889;50.084;8.646;2023-08-21T10:40:37;38.30;65.70
54846;DHT22;53889;50.084;8.646;2023-08-21T10:43:04;38.40;63.40
54846;DHT22;53889;50.084;8.646;2023-08-21T10:45:31;38.40;61.10
54846;DHT22;53889;50.084;8.646;2023-08-21T10:47:59;38.10;61.80
54846;DHT22;53889;50.084;8.646;2023-08-21T10:50:26;37.30;63.70
54846;DHT22;53889;50.084;8.646;2023-08-21T10:52:53;37.50;63.30
54846;DHT22;53889;50.084;8.646;2023-08-21T10:55:20;37.90;64.10
54846;DHT22;53889;50.084;8.646;2023-08-21T10:57:48;38.90;61.80
54846;DHT22;53889;50.084;8.646;2023-08-21T11:00:17;38.40;62.20
54846;DHT22;53889;50.084;8.646;2023-08-21T11:02:45;39.00;62.90
54846;DHT22;53889;50.084;8.646;2023-08-21T11:05:14;39.70;62.50
54846;DHT22;53889;50.084;8.646;2023-08-21T11:07:42;39.70;62.10
54846;DHT22;53889;50.084;8.646;2023-08-21T11:10:11;40.00;61.20
54846;DHT22;53889;50.084;8.646;2023-08-21T11:12:41;40.20;61.50
54846;DHT22;53889;50.084;8.646;2023-08-21T11:15:14;40.80;59.70
54846;DHT22;53889;50.084;8.646;2023-08-21T11:17:41;40.40;59.20
54846;DHT22;53889;50.084;8.646;2023-08-21T11:20:08;40.20;58.70
54846;DHT22;53889;50.084;8.646;2023-08-21T11:22:36;40.90;59.30
54846;DHT22;53889;50.084;8.646;2023-08-21T11:25:04;41.10;57.90
54846;DHT22;53889;50.084;8.646;2023-08-21T11:27:31;41.10;58.30
54846;DHT22;53889;50.084;8.646;2023-08-21T11:29:57;41.80;58.20
54846;DHT22;53889;50.084;8.646;2023-08-21T11:32:24;40.70;57.80
54846;DHT22;53889;50.084;8.646;2023-08-21T11:34:52;40.50;57.90
54846;DHT22;53889;50.084;8.646;2023-08-21T11:37:21;41.10;58.40
54846;DHT22;53889;50.084;8.646;2023-08-21T11:39:50;41.40;57.50
54846;DHT22;53889;50.084;8.646;2023-08-21T11:42:18;41.70;57.10
54846;DHT22;53889;50.084;8.646;2023-08-21T11:44:46;41.80;56.60
54846;DHT22;53889;50.084;8.646;2023-08-21T11:47:14;41.20;56.80
54846;DHT22;53889;50.084;8.646;2023-08-21T11:49:42;39.80;58.70
54846;DHT22;53889;50.084;8.646;2023-08-21T11:52:09;39.00;59.80
54846;DHT22;53889;50.084;8.646;2023-08-21T11:54:37;38.20;61.40
54846;DHT22;53889;50.084;8.646;2023-08-21T11:57:08;38.00;62.30
54846;DHT22;53889;50.084;8.646;2023-08-21T11:59:35;38.40;61.50
54846;DHT22;53889;50.084;8.646;2023-08-21T12:02:09;38.30;60.90
54846;DHT22;53889;50.084;8.646;2023-08-21T12:04:36;37.80;60.90
54846;DHT22;53889;50.084;8.646;2023-08-21T12:07:03;37.70;61.10
54846;DHT22;53889;50.084;8.646;2023-08-21T12:09:31;36.80;61.80
54846;DHT22;53889;50.084;8.646;2023-08-21T12:11:58;37.10;62.30
54846;DHT22;53889;50.084;8.646;2023-08-21T12:14:28;37.70;61.40
54846;DHT22;53889;50.084;8.646;2023-08-21T12:16:55;38.10;59.80
54846;DHT22;53889;50.084;8.646;2023-08-21T12:19:22;39.10;59.00
54846;DHT22;53889;50.084;8.646;2023-08-21T12:21:50;40.00;57.00
54846;DHT22;53889;50.084;8.646;2023-08-21T12:24:17;40.20;57.00
54846;DHT22;53889;50.084;8.646;2023-08-21T12:26:43;40.90;56.00
54846;DHT22;53889;50.084;8.646;2023-08-21T12:29:10;41.00;56.10
54846;DHT22;53889;50.084;8.646;2023-08-21T12:31:38;40.40;56.60
54846;DHT22;53889;50.084;8.646;2023-08-21T12:34:05;39.70;56.70
54846;DHT22;53889;50.084;8.646;2023-08-21T12:36:34;39.50;57.20
54846;DHT22;53889;50.084;8.646;2023-08-21T12:39:02;38.90;58.00
54846;DHT22;53889;50.084;8.646;2023-08-21T12:41:29;39.40;57.40
54846;DHT22;53889;50.084;8.646;2023-08-21T12:43:56;39.80;57.40
54846;DHT22;53889;50.084;8.646;2023-08-21T12:46:22;40.20;57.60
54846;DHT22;53889;50.084;8.646;2023-08-21T12:48:51;40.50;57.10
54846;DHT22;53889;50.084;8.646;2023-08-21T12:51:17;40.40;57.10
54846;DHT22;53889;50.084;8.646;2023-08-21T12:53:44;39.80;57.50
54846;DHT22;53889;50.084;8.646;2023-08-21T12:56:11;39.70;57.50
54846;DHT22;53889;50.084;8.646;2023-08-21T12:58:37;38.80;58.90
54846;DHT22;53889;50.084;8.646;2023-08-21T13:01:04;38.00;59.70
54846;DHT22;53889;50.084;8.646;2023-08-21T13:03:33;37.10;60.70
54846;DHT22;53889;50.084;8.646;2023-08-21T13:06:01;37.20;61.10
54846;DHT22;53889;50.084;8.646;2023-08-21T13:08:28;36.90;61.40
54846;DHT22;53889;50.084;8.646;2023-08-21T13:10:55;36.90;61.60
54846;DHT22;53889;50.084;8.646;2023-08-21T13:13:21;36.90;62.00
54846;DHT22;53889;50.084;8.646;2023-08-21T13:15:48;36.60;62.40
54846;DHT22;53889;50.084;8.646;2023-08-21T13:18:16;36.50;61.30
54846;DHT22;53889;50.084;8.646;2023-08-21T13:20:42;36.40;61.50
54846;DHT22;53889;50.084;8.646;2023-08-21T13:23:10;36.50;61.10
54846;DHT22;53889;50.084;8.646;2023-08-21T13:25:37;36.10;61.70
54846;DHT22;53889;50.084;8.646;2023-08-21T13:28:04;36.10;62.90
54846;DHT22;53889;50.084;8.646;2023-08-21T13:30:31;35.50;63.30
54846;DHT22;53889;50.084;8.646;2023-08-21T13:32:57;35.20;63.60
54846;DHT22;53889;50.084;8.646;2023-08-21T13:35:24;35.10;63.90
54846;DHT22;53889;50.084;8.646;2023-08-21T13:37:51;35.10;63.50
54846;DHT22;53889;50.084;8.646;2023-08-21T13:40:19;34.70;63.30
54846;DHT22;53889;50.084;8.646;2023-08-21T13:42:47;34.60;63.80
54846;DHT22;53889;50.084;8.646;2023-08-21T13:45:15;34.70;64.40
54846;DHT22;53889;50.084;8.646;2023-08-21T13:47:43;35.00;63.70
54846;DHT22;53889;50.084;8.646;2023-08-21T13:50:11;35.20;63.50
54846;DHT22;53889;50.084;8.646;2023-08-21T13:52:38;35.10;61.80
54846;DHT22;53889;50.084;8.646;2023-08-21T13:55:05;34.30;62.60
54846;DHT22;53889;50.084;8.646;2023-08-21T13:57:34;34.30;63.40
54846;DHT22;53889;50.084;8.646;2023-08-21T14:00:02;34.60;64.10
54846;DHT22;53889;50.084;8.646;2023-08-21T14:02:32;34.80;63.10
54846;DHT22;53889;50.084;8.646;2023-08-21T14:04:59;34.90;63.70
54846;DHT22;53889;50.084;8.646;2023-08-21T14:07:26;34.80;64.40
54846;DHT22;53889;50.084;8.646;2023-08-21T14:09:53;34.60;64.60
54846;DHT22;53889;50.084;8.646;2023-08-21T14:12:20;34.60;65.10
54846;DHT22;53889;50.084;8.646;2023-08-21T14:14:48;34.90;65.00
54846;DHT22;53889;50.084;8.646;2023-08-21T14:17:15;34.90;64.20
54846;DHT22;53889;50.084;8.646;2023-08-21T14:19:42;34.50;64.70
54846;DHT22;53889;50.084;8.646;2023-08-21T14:22:08;34.70;65.40
54846;DHT22;53889;50.084;8.646;2023-08-21T14:24:35;34.90;65.20
54846;DHT22;53889;50.084;8.646;2023-08-21T14:27:02;35.00;65.40
54846;DHT22;53889;50.084;8.646;2023-08-21T14:29:28;35.10;65.40
54846;DHT22;53889;50.084;8.646;2023-08-21T14:31:58;35.00;66.00
54846;DHT22;53889;50.084;8.646;2023-08-21T14:34:25;35.00;66.50
54846;DHT22;53889;50.084;8.646;2023-08-21T14:36:53;35.10;66.60
54846;DHT22;53889;50.084;8.646;2023-08-21T14:39:22;34.90;67.10
54846;DHT22;53889;50.084;8.646;2023-08-21T14:41:54;34.70;67.40
54846;DHT22;53889;50.084;8.646;2023-08-21T14:44:20;34.70;67.40
54846;DHT22;53889;50.084;8.646;2023-08-21T14:46:47;34.70;67.10
54846;DHT22;53889;50.084;8.646;2023-08-21T14:49:15;34.50;66.60
54846;DHT22;53889;50.084;8.646;2023-08-21T14:51:42;34.50;66.60
54846;DHT22;53889;50.084;8.646;2023-08-21T14:54:08;34.30;66.80
54846;DHT22;53889;50.084;8.646;2023-08-21T14:56:35;34.30;67.40
54846;DHT22;53889;50.084;8.646;2023-08-21T14:59:02;34.20;67.70
54846;DHT22;53889;50.084;8.646;2023-08-21T15:01:29;34.00;67.10
54846;DHT22;53889;50.084;8.646;2023-08-21T15:03:56;34.10;66.80
54846;DHT22;53889;50.084;8.646;2023-08-21T15:06:26;33.00;65.20
54846;DHT22;53889;50.084;8.646;2023-08-21T15:08:52;34.00;67.00
54846;DHT22;53889;50.084;8.646;2023-08-21T15:11:19;34.00;66.90
54846;DHT22;53889;50.084;8.646;2023-08-21T15:13:46;34.10;66.40
54846;DHT22;53889;50.084;8.646;2023-08-21T15:16:12;34.10;66.40
54846;DHT22;53889;50.084;8.646;2023-08-21T15:18:39;33.90;65.70
54846;DHT22;53889;50.084;8.646;2023-08-21T15:21:06;33.90;66.60
54846;DHT22;53889;50.084;8.646;2023-08-21T15:23:34;35.10;67.20
54846;DHT22;53889;50.084;8.646;2023-08-21T15:26:01;34.00;67.80
54846;DHT22;53889;50.084;8.646;2023-08-21T15:28:27;34.00;67.40
54846;DHT22;53889;50.084;8.646;2023-08-21T15:30:54;33.90;67.00